FVHAFBSK

Guest
Details From FVHA - HARARE INTL
To FBSK - SIR SERETSE KHAMA INTL
Flight Number -
Tags generated
Created
Modified
Stats Distance 504 nm / 933 km
Max Altitude 34,000 ft / 10,363 m
Waypoints 7
Social Downloads 0
Likes 0
Share VATSIM

Download

Looking for another format? Having issues loading an existing format? Contact us
Advertisement - Login to hide

Notes

Basic altitude profile: - Ascent Rate: 2500ft/min - Ascent Speed: 250kts - Cruise Altitude: 35000ft - Cruise Speed: 420kts - Descent Rate: 1500ft/min - Descent Speed: 250kts

Route

FVHA RC UB400 VBU B400 KUTLA FBSK

ID Type Via Altitude Latitude Longitude Leg Dist Tot Dist Heading (true) Name
O FVHA APT - 0 ft / 0 m -17.93181˚ 31.09285˚ - 0 nm - HARARE INTL
RC NDB - 32,900 ft / 10,028 m -18.93524˚ 29.80466˚ 94 nm 94 nm 230° / 231° KWEKWE NDB
VBU VOR UB400 (AWY-HI) 34,000 ft / 10,363 m -20.02906˚ 28.64386˚ 92 nm 187 nm 225° / 225° J M NKOMO VOR-DME
KULBU FIX B400 (AWY-HI) 34,000 ft / 10,363 m -20.93646˚ 27.68553˚ 76 nm 264 nm 225° / 225° -
FTV VOR B400 (AWY-HI) 34,000 ft / 10,363 m -21.16265˚ 27.47388˚ 18 nm 282 nm 221° / 221° FRANCISTOWN VOR-DME
KUTLA FIX B400 (AWY-HI) 24,500 ft / 7,468 m -23.60210˚ 26.31632˚ 159 nm 442 nm 203° / 204° -
O FBSK APT - 0 ft / 0 m -24.55523˚ 25.91821˚ 61 nm 503 nm 201° / 201° SIR SERETSE KHAMA INTL

Altitude Profile

Advertisement - Login to hide

Weather


0- 5 10 15 20 25 30 35+ Temperature / ° C

Clouds and Precipitation
Forecast for 2017-12-12 00:00 UTC. Updated 2 hours ago

Ground ~20,000 ft ~40,000 ft Winds

FVHA

Details ICAO FVHA (HRE)
Name HARARE INTL
Region Zimbabwe
Timezone Africa/Harare (UTC+2.0)
Stats Elevation 4,887 ft / 1,490 m (AMSL)
Location -17.931806° 31.092848°
Runways 1
Magnetic Variation 8.522° W

METAR

FVHA 112100Z 08010KT 9999 FEW010 BKN080 19/14 Q1022 NOSIG

Decode

TAF

Not found

Departure Runways

ID Width Length Bearing (true) Bearing (mag) Surface Threshold Offset Overrun Length
05 151 ft / 46 m 15,517 ft / 4,730 m 44.85° 53.37° Asphalt 0 ft / 0 m 320 ft / 98 m
23 151 ft / 46 m 15,517 ft / 4,730 m 224.84° 233.36° Asphalt 3,630 ft / 1,106 m 295 ft / 90 m

FBSK

Details ICAO FBSK (GBE)
Name SIR SERETSE KHAMA INTL
Region Botswana
Timezone Africa/Gaborone (UTC+2.0)
Stats Elevation 3,299 ft / 1,006 m (AMSL)
Location -24.555225° 25.918208°
Runways 1
Magnetic Variation 15.675° W

METAR

FBSK 112100Z 09006KT CAVOK 23/17 Q1013 NOSIG

Decode

TAF

Not found

Destination Runways

ID Width Length Bearing (true) Bearing (mag) Surface Threshold Offset Overrun Length
08 148 ft / 45 m 9,849 ft / 3,002 m 61.48° 77.16° Concrete 0 ft / 0 m 197 ft / 60 m
26 148 ft / 45 m 9,849 ft / 3,002 m 241.47° 257.15° Concrete 0 ft / 0 m 197 ft / 60 m